sensor_id;sensor_type;location;lat;lon;timestamp;P1;durP1;ratioP1;P2;durP2;ratioP2
20296;SDS011;10307;40.100;18.336;2022-12-01T00:00:47;6.70;;;3.08;;
20296;SDS011;10307;40.100;18.336;2022-12-01T00:03:18;7.45;;;2.95;;
20296;SDS011;10307;40.100;18.336;2022-12-01T00:05:45;7.45;;;3.15;;
20296;SDS011;10307;40.100;18.336;2022-12-01T00:08:11;5.88;;;3.00;;
20296;SDS011;10307;40.100;18.336;2022-12-01T00:10:37;8.07;;;3.17;;
20296;SDS011;10307;40.100;18.336;2022-12-01T00:13:04;9.35;;;3.40;;
20296;SDS011;10307;40.100;18.336;2022-12-01T00:15:32;7.30;;;3.35;;
20296;SDS011;10307;40.100;18.336;2022-12-01T00:18:00;10.13;;;3.92;;
20296;SDS011;10307;40.100;18.336;2022-12-01T00:20:31;7.72;;;3.17;;
20296;SDS011;10307;40.100;18.336;2022-12-01T00:22:59;7.65;;;3.40;;
20296;SDS011;10307;40.100;18.336;2022-12-01T00:25:25;10.07;;;3.50;;
20296;SDS011;10307;40.100;18.336;2022-12-01T00:27:52;8.45;;;3.58;;
20296;SDS011;10307;40.100;18.336;2022-12-01T00:30:20;7.85;;;3.25;;
20296;SDS011;10307;40.100;18.336;2022-12-01T00:32:47;10.52;;;3.80;;
20296;SDS011;10307;40.100;18.336;2022-12-01T00:35:14;9.00;;;3.13;;
20296;SDS011;10307;40.100;18.336;2022-12-01T00:37:41;9.93;;;3.67;;
20296;SDS011;10307;40.100;18.336;2022-12-01T00:40:09;8.73;;;3.55;;
20296;SDS011;10307;40.100;18.336;2022-12-01T00:42:36;8.80;;;3.67;;
20296;SDS011;10307;40.100;18.336;2022-12-01T00:45:02;6.38;;;3.13;;
20296;SDS011;10307;40.100;18.336;2022-12-01T00:47:29;10.45;;;3.35;;
20296;SDS011;10307;40.100;18.336;2022-12-01T00:49:55;8.95;;;3.78;;
20296;SDS011;10307;40.100;18.336;2022-12-01T00:52:21;10.43;;;4.15;;
20296;SDS011;10307;40.100;18.336;2022-12-01T00:54:48;6.30;;;3.17;;
20296;SDS011;10307;40.100;18.336;2022-12-01T00:57:14;6.57;;;3.20;;
20296;SDS011;10307;40.100;18.336;2022-12-01T00:59:40;9.25;;;3.58;;
20296;SDS011;10307;40.100;18.336;2022-12-01T01:02:06;9.32;;;3.03;;
20296;SDS011;10307;40.100;18.336;2022-12-01T01:04:34;10.75;;;3.13;;
20296;SDS011;10307;40.100;18.336;2022-12-01T01:07:01;6.53;;;2.47;;
20296;SDS011;10307;40.100;18.336;2022-12-01T01:09:27;7.00;;;3.00;;
20296;SDS011;10307;40.100;18.336;2022-12-01T01:11:55;10.00;;;2.65;;
20296;SDS011;10307;40.100;18.336;2022-12-01T01:14:21;6.43;;;2.78;;
20296;SDS011;10307;40.100;18.336;2022-12-01T01:16:48;7.47;;;2.85;;
20296;SDS011;10307;40.100;18.336;2022-12-01T01:19:15;10.02;;;3.28;;
20296;SDS011;10307;40.100;18.336;2022-12-01T01:21:42;7.05;;;3.08;;
20296;SDS011;10307;40.100;18.336;2022-12-01T01:24:08;5.57;;;2.90;;
20296;SDS011;10307;40.100;18.336;2022-12-01T01:26:34;10.93;;;2.65;;
20296;SDS011;10307;40.100;18.336;2022-12-01T01:29:03;5.07;;;2.42;;
20296;SDS011;10307;40.100;18.336;2022-12-01T01:31:34;10.00;;;3.13;;
20296;SDS011;10307;40.100;18.336;2022-12-01T01:34:01;5.15;;;2.38;;
20296;SDS011;10307;40.100;18.336;2022-12-01T01:36:28;7.43;;;2.65;;
20296;SDS011;10307;40.100;18.336;2022-12-01T01:38:54;5.78;;;3.17;;
20296;SDS011;10307;40.100;18.336;2022-12-01T01:41:21;7.20;;;2.53;;
20296;SDS011;10307;40.100;18.336;2022-12-01T01:46:26;6.82;;;2.55;;
20296;SDS011;10307;40.100;18.336;2022-12-01T01:49:02;4.85;;;2.17;;
20296;SDS011;10307;40.100;18.336;2022-12-01T01:51:34;3.78;;;1.50;;
20296;SDS011;10307;40.100;18.336;2022-12-01T01:54:06;3.75;;;1.55;;
20296;SDS011;10307;40.100;18.336;2022-12-01T01:56:41;7.22;;;1.65;;
20296;SDS011;10307;40.100;18.336;2022-12-01T01:59:12;3.67;;;1.40;;
20296;SDS011;10307;40.100;18.336;2022-12-01T02:01:44;2.80;;;1.33;;
20296;SDS011;10307;40.100;18.336;2022-12-01T02:04:13;4.22;;;1.45;;
20296;SDS011;10307;40.100;18.336;2022-12-01T02:06:40;3.13;;;1.10;;
20296;SDS011;10307;40.100;18.336;2022-12-01T02:09:08;2.92;;;1.27;;
20296;SDS011;10307;40.100;18.336;2022-12-01T02:34:28;1.13;;;0.88;;
20296;SDS011;10307;40.100;18.336;2022-12-01T02:37:30;1.43;;;0.70;;
20296;SDS011;10307;40.100;18.336;2022-12-01T02:48:36;1.17;;;0.70;;
20296;SDS011;10307;40.100;18.336;2022-12-01T02:51:07;1.67;;;0.85;;
20296;SDS011;10307;40.100;18.336;2022-12-01T02:53:44;3.38;;;0.80;;
20296;SDS011;10307;40.100;18.336;2022-12-01T02:56:11;1.95;;;0.88;;
20296;SDS011;10307;40.100;18.336;2022-12-01T02:58:43;2.13;;;0.95;;
20296;SDS011;10307;40.100;18.336;2022-12-01T03:01:25;24.92;;;1.58;;
20296;SDS011;10307;40.100;18.336;2022-12-01T03:04:25;3.53;;;0.60;;
20296;SDS011;10307;40.100;18.336;2022-12-01T03:12:49;1.15;;;0.70;;
20296;SDS011;10307;40.100;18.336;2022-12-01T03:15:29;0.95;;;0.52;;
20296;SDS011;10307;40.100;18.336;2022-12-01T03:18:06;2.50;;;0.70;;
20296;SDS011;10307;40.100;18.336;2022-12-01T03:20:53;2.35;;;0.63;;
20296;SDS011;10307;40.100;18.336;2022-12-01T03:23:34;1.85;;;0.70;;
20296;SDS011;10307;40.100;18.336;2022-12-01T03:26:03;4.40;;;1.25;;
20296;SDS011;10307;40.100;18.336;2022-12-01T03:28:33;5.75;;;0.90;;
20296;SDS011;10307;40.100;18.336;2022-12-01T03:31:06;3.08;;;0.60;;
20296;SDS011;10307;40.100;18.336;2022-12-01T03:33:41;0.95;;;0.60;;
20296;SDS011;10307;40.100;18.336;2022-12-01T03:36:22;1.77;;;0.73;;
20296;SDS011;10307;40.100;18.336;2022-12-01T03:38:55;2.17;;;0.70;;
20296;SDS011;10307;40.100;18.336;2022-12-01T03:41:29;1.35;;;0.75;;
20296;SDS011;10307;40.100;18.336;2022-12-01T03:44:11;1.23;;;0.68;;
20296;SDS011;10307;40.100;18.336;2022-12-01T03:47:01;1.70;;;0.60;;
20296;SDS011;10307;40.100;18.336;2022-12-01T03:49:30;1.27;;;0.60;;
20296;SDS011;10307;40.100;18.336;2022-12-01T03:57:17;3.72;;;0.98;;
20296;SDS011;10307;40.100;18.336;2022-12-01T04:00:06;1.75;;;0.93;;
20296;SDS011;10307;40.100;18.336;2022-12-01T04:02:39;2.97;;;0.77;;
20296;SDS011;10307;40.100;18.336;2022-12-01T04:05:06;2.25;;;0.80;;
20296;SDS011;10307;40.100;18.336;2022-12-01T04:07:36;5.22;;;2.40;;
20296;SDS011;10307;40.100;18.336;2022-12-01T04:10:04;4.88;;;1.77;;
20296;SDS011;10307;40.100;18.336;2022-12-01T04:12:31;3.40;;;0.98;;
20296;SDS011;10307;40.100;18.336;2022-12-01T04:14:59;1.60;;;0.80;;
20296;SDS011;10307;40.100;18.336;2022-12-01T04:17:30;3.10;;;0.80;;
20296;SDS011;10307;40.100;18.336;2022-12-01T04:19:57;2.15;;;0.60;;
20296;SDS011;10307;40.100;18.336;2022-12-01T04:22:23;3.78;;;0.60;;
20296;SDS011;10307;40.100;18.336;2022-12-01T04:24:49;2.47;;;0.55;;
20296;SDS011;10307;40.100;18.336;2022-12-01T04:27:16;1.00;;;0.70;;
20296;SDS011;10307;40.100;18.336;2022-12-01T04:29:43;1.27;;;0.80;;
20296;SDS011;10307;40.100;18.336;2022-12-01T04:32:09;2.20;;;0.80;;
20296;SDS011;10307;40.100;18.336;2022-12-01T04:34:36;3.80;;;0.90;;
20296;SDS011;10307;40.100;18.336;2022-12-01T04:37:02;4.15;;;0.60;;
20296;SDS011;10307;40.100;18.336;2022-12-01T04:39:30;2.70;;;0.77;;
20296;SDS011;10307;40.100;18.336;2022-12-01T04:41:56;1.63;;;0.70;;
20296;SDS011;10307;40.100;18.336;2022-12-01T04:44:22;1.65;;;0.82;;
20296;SDS011;10307;40.100;18.336;2022-12-01T04:46:49;1.23;;;0.68;;
20296;SDS011;10307;40.100;18.336;2022-12-01T04:49:17;2.50;;;0.60;;
20296;SDS011;10307;40.100;18.336;2022-12-01T04:51:44;1.80;;;0.70;;
20296;SDS011;10307;40.100;18.336;2022-12-01T04:54:10;1.80;;;0.77;;
20296;SDS011;10307;40.100;18.336;2022-12-01T04:56:37;3.03;;;1.90;;
20296;SDS011;10307;40.100;18.336;2022-12-01T04:59:03;4.28;;;1.30;;
20296;SDS011;10307;40.100;18.336;2022-12-01T05:01:29;4.53;;;1.90;;
20296;SDS011;10307;40.100;18.336;2022-12-01T05:03:55;4.18;;;1.35;;
20296;SDS011;10307;40.100;18.336;2022-12-01T05:06:23;4.05;;;1.50;;
20296;SDS011;10307;40.100;18.336;2022-12-01T05:08:53;5.40;;;1.27;;
20296;SDS011;10307;40.100;18.336;2022-12-01T05:11:21;2.67;;;0.82;;
20296;SDS011;10307;40.100;18.336;2022-12-01T05:13:48;1.30;;;0.90;;
20296;SDS011;10307;40.100;18.336;2022-12-01T05:16:16;2.58;;;0.93;;
20296;SDS011;10307;40.100;18.336;2022-12-01T05:18:51;5.55;;;1.00;;
20296;SDS011;10307;40.100;18.336;2022-12-01T05:21:39;2.58;;;0.52;;
20296;SDS011;10307;40.100;18.336;2022-12-01T05:24:07;4.70;;;1.25;;
20296;SDS011;10307;40.100;18.336;2022-12-01T05:26:35;3.83;;;1.20;;
20296;SDS011;10307;40.100;18.336;2022-12-01T05:29:01;2.22;;;0.95;;
20296;SDS011;10307;40.100;18.336;2022-12-01T05:31:28;5.38;;;1.40;;
20296;SDS011;10307;40.100;18.336;2022-12-01T05:33:54;1.48;;;1.10;;
20296;SDS011;10307;40.100;18.336;2022-12-01T05:36:21;3.33;;;1.10;;
20296;SDS011;10307;40.100;18.336;2022-12-01T05:38:47;2.72;;;1.08;;
20296;SDS011;10307;40.100;18.336;2022-12-01T05:41:14;6.47;;;1.50;;
20296;SDS011;10307;40.100;18.336;2022-12-01T05:43:40;4.53;;;1.48;;
20296;SDS011;10307;40.100;18.336;2022-12-01T05:46:07;3.80;;;1.17;;
20296;SDS011;10307;40.100;18.336;2022-12-01T05:48:33;5.65;;;1.63;;
20296;SDS011;10307;40.100;18.336;2022-12-01T05:51:06;4.00;;;1.35;;
20296;SDS011;10307;40.100;18.336;2022-12-01T05:53:33;3.53;;;1.40;;
20296;SDS011;10307;40.100;18.336;2022-12-01T05:55:59;5.40;;;1.40;;
20296;SDS011;10307;40.100;18.336;2022-12-01T05:58:26;4.95;;;1.80;;
20296;SDS011;10307;40.100;18.336;2022-12-01T06:00:52;4.38;;;1.63;;
20296;SDS011;10307;40.100;18.336;2022-12-01T06:03:18;4.07;;;1.50;;
20296;SDS011;10307;40.100;18.336;2022-12-01T06:05:44;3.33;;;1.52;;
20296;SDS011;10307;40.100;18.336;2022-12-01T06:08:11;7.70;;;1.67;;
20296;SDS011;10307;40.100;18.336;2022-12-01T06:10:37;3.60;;;1.42;;
20296;SDS011;10307;40.100;18.336;2022-12-01T06:13:03;5.30;;;2.10;;
20296;SDS011;10307;40.100;18.336;2022-12-01T06:15:30;3.63;;;1.45;;
20296;SDS011;10307;40.100;18.336;2022-12-01T06:17:59;6.45;;;2.00;;
20296;SDS011;10307;40.100;18.336;2022-12-01T06:20:26;8.45;;;2.42;;
20296;SDS011;10307;40.100;18.336;2022-12-01T06:22:52;4.35;;;2.15;;
20296;SDS011;10307;40.100;18.336;2022-12-01T06:25:19;4.82;;;1.98;;
20296;SDS011;10307;40.100;18.336;2022-12-01T06:27:45;7.18;;;2.10;;
20296;SDS011;10307;40.100;18.336;2022-12-01T06:30:12;5.80;;;2.10;;
20296;SDS011;10307;40.100;18.336;2022-12-01T06:32:38;3.88;;;1.83;;
20296;SDS011;10307;40.100;18.336;2022-12-01T06:35:05;4.82;;;1.70;;
20296;SDS011;10307;40.100;18.336;2022-12-01T06:37:31;5.13;;;1.67;;
20296;SDS011;10307;40.100;18.336;2022-12-01T06:39:57;7.00;;;2.35;;
20296;SDS011;10307;40.100;18.336;2022-12-01T06:42:24;5.68;;;1.88;;
20296;SDS011;10307;40.100;18.336;2022-12-01T06:44:53;4.50;;;2.22;;
20296;SDS011;10307;40.100;18.336;2022-12-01T06:47:19;6.70;;;2.35;;
20296;SDS011;10307;40.100;18.336;2022-12-01T06:49:45;6.90;;;2.80;;
20296;SDS011;10307;40.100;18.336;2022-12-01T06:52:12;8.77;;;3.08;;
20296;SDS011;10307;40.100;18.336;2022-12-01T06:54:38;4.43;;;2.10;;
20296;SDS011;10307;40.100;18.336;2022-12-01T06:57:04;6.72;;;2.85;;
20296;SDS011;10307;40.100;18.336;2022-12-01T06:59:30;5.68;;;2.53;;
20296;SDS011;10307;40.100;18.336;2022-12-01T07:01:57;8.02;;;2.53;;
20296;SDS011;10307;40.100;18.336;2022-12-01T07:04:23;6.60;;;2.67;;
20296;SDS011;10307;40.100;18.336;2022-12-01T07:06:49;4.68;;;2.45;;
20296;SDS011;10307;40.100;18.336;2022-12-01T07:09:15;7.15;;;2.63;;
20296;SDS011;10307;40.100;18.336;2022-12-01T07:11:42;6.20;;;2.72;;
20296;SDS011;10307;40.100;18.336;2022-12-01T07:14:14;6.70;;;2.25;;
20296;SDS011;10307;40.100;18.336;2022-12-01T07:16:45;7.20;;;2.28;;
20296;SDS011;10307;40.100;18.336;2022-12-01T07:19:11;9.68;;;2.58;;
20296;SDS011;10307;40.100;18.336;2022-12-01T07:21:37;7.78;;;3.10;;
20296;SDS011;10307;40.100;18.336;2022-12-01T07:24:04;5.93;;;2.67;;
20296;SDS011;10307;40.100;18.336;2022-12-01T07:26:31;7.07;;;2.53;;
20296;SDS011;10307;40.100;18.336;2022-12-01T07:28:57;5.70;;;2.63;;
20296;SDS011;10307;40.100;18.336;2022-12-01T07:31:24;7.88;;;3.03;;
20296;SDS011;10307;40.100;18.336;2022-12-01T07:33:50;6.28;;;2.15;;
20296;SDS011;10307;40.100;18.336;2022-12-01T07:36:17;10.98;;;3.22;;
20296;SDS011;10307;40.100;18.336;2022-12-01T07:38:43;7.60;;;2.83;;
20296;SDS011;10307;40.100;18.336;2022-12-01T07:41:10;7.80;;;2.65;;
20296;SDS011;10307;40.100;18.336;2022-12-01T07:43:38;8.00;;;3.00;;
20296;SDS011;10307;40.100;18.336;2022-12-01T07:46:15;7.78;;;2.95;;
20296;SDS011;10307;40.100;18.336;2022-12-01T07:48:43;8.75;;;2.60;;
20296;SDS011;10307;40.100;18.336;2022-12-01T07:51:11;8.52;;;3.20;;
20296;SDS011;10307;40.100;18.336;2022-12-01T07:53:41;8.10;;;2.57;;
20296;SDS011;10307;40.100;18.336;2022-12-01T07:56:11;9.35;;;3.28;;
20296;SDS011;10307;40.100;18.336;2022-12-01T07:58:38;9.60;;;3.17;;
20296;SDS011;10307;40.100;18.336;2022-12-01T08:01:07;9.40;;;3.47;;
20296;SDS011;10307;40.100;18.336;2022-12-01T08:03:36;8.15;;;3.38;;
20296;SDS011;10307;40.100;18.336;2022-12-01T08:06:02;14.18;;;3.97;;
20296;SDS011;10307;40.100;18.336;2022-12-01T08:08:30;7.97;;;3.65;;
20296;SDS011;10307;40.100;18.336;2022-12-01T08:10:59;11.13;;;4.65;;
20296;SDS011;10307;40.100;18.336;2022-12-01T08:13:26;11.70;;;4.00;;
20296;SDS011;10307;40.100;18.336;2022-12-01T08:15:53;7.40;;;3.53;;
20296;SDS011;10307;40.100;18.336;2022-12-01T08:18:20;14.73;;;4.20;;
20296;SDS011;10307;40.100;18.336;2022-12-01T08:20:47;9.40;;;4.32;;
20296;SDS011;10307;40.100;18.336;2022-12-01T08:23:14;9.82;;;4.03;;
20296;SDS011;10307;40.100;18.336;2022-12-01T08:25:40;11.57;;;3.92;;
20296;SDS011;10307;40.100;18.336;2022-12-01T08:28:07;8.23;;;3.58;;
20296;SDS011;10307;40.100;18.336;2022-12-01T08:30:33;9.05;;;3.35;;
20296;SDS011;10307;40.100;18.336;2022-12-01T08:33:00;8.85;;;3.17;;
20296;SDS011;10307;40.100;18.336;2022-12-01T08:35:26;9.30;;;3.35;;
20296;SDS011;10307;40.100;18.336;2022-12-01T08:37:53;9.55;;;3.90;;
20296;SDS011;10307;40.100;18.336;2022-12-01T08:40:19;11.25;;;4.88;;
20296;SDS011;10307;40.100;18.336;2022-12-01T08:42:46;10.23;;;3.78;;
20296;SDS011;10307;40.100;18.336;2022-12-01T08:45:12;7.05;;;3.75;;
20296;SDS011;10307;40.100;18.336;2022-12-01T08:47:39;12.75;;;3.92;;
20296;SDS011;10307;40.100;18.336;2022-12-01T08:50:05;14.45;;;3.92;;
20296;SDS011;10307;40.100;18.336;2022-12-01T08:52:33;5.25;;;2.67;;
20296;SDS011;10307;40.100;18.336;2022-12-01T08:55:00;7.95;;;3.75;;
20296;SDS011;10307;40.100;18.336;2022-12-01T08:57:27;7.95;;;3.25;;
20296;SDS011;10307;40.100;18.336;2022-12-01T08:59:54;8.15;;;2.53;;
20296;SDS011;10307;40.100;18.336;2022-12-01T09:02:21;10.35;;;3.97;;
20296;SDS011;10307;40.100;18.336;2022-12-01T09:04:47;13.57;;;3.88;;
20296;SDS011;10307;40.100;18.336;2022-12-01T09:07:14;13.57;;;5.93;;
20296;SDS011;10307;40.100;18.336;2022-12-01T09:09:42;22.45;;;4.78;;
20296;SDS011;10307;40.100;18.336;2022-12-01T09:12:09;11.70;;;3.53;;
20296;SDS011;10307;40.100;18.336;2022-12-01T09:14:36;9.80;;;3.83;;
20296;SDS011;10307;40.100;18.336;2022-12-01T09:17:05;12.27;;;3.83;;
20296;SDS011;10307;40.100;18.336;2022-12-01T09:19:32;7.32;;;2.33;;
20296;SDS011;10307;40.100;18.336;2022-12-01T09:21:58;8.23;;;2.92;;
20296;SDS011;10307;40.100;18.336;2022-12-01T09:24:25;7.82;;;2.50;;
20296;SDS011;10307;40.100;18.336;2022-12-01T09:26:58;7.30;;;2.30;;
20296;SDS011;10307;40.100;18.336;2022-12-01T09:29:25;7.53;;;2.53;;
20296;SDS011;10307;40.100;18.336;2022-12-01T09:31:53;8.70;;;3.10;;
20296;SDS011;10307;40.100;18.336;2022-12-01T09:34:21;8.95;;;2.70;;
20296;SDS011;10307;40.100;18.336;2022-12-01T09:36:48;7.53;;;3.38;;
20296;SDS011;10307;40.100;18.336;2022-12-01T09:39:15;6.28;;;2.50;;
20296;SDS011;10307;40.100;18.336;2022-12-01T09:44:28;7.47;;;2.67;;
20296;SDS011;10307;40.100;18.336;2022-12-01T09:52:49;9.40;;;2.70;;
20296;SDS011;10307;40.100;18.336;2022-12-01T09:55:19;7.72;;;2.90;;
20296;SDS011;10307;40.100;18.336;2022-12-01T09:57:50;8.75;;;2.45;;
20296;SDS011;10307;40.100;18.336;2022-12-01T10:00:22;7.55;;;2.83;;
20296;SDS011;10307;40.100;18.336;2022-12-01T10:05:21;20.17;;;9.23;;
20296;SDS011;10307;40.100;18.336;2022-12-01T10:07:53;12.27;;;5.40;;
20296;SDS011;10307;40.100;18.336;2022-12-01T10:10:46;7.97;;;3.13;;
20296;SDS011;10307;40.100;18.336;2022-12-01T10:13:17;8.57;;;3.75;;
20296;SDS011;10307;40.100;18.336;2022-12-01T10:21:02;15.90;;;6.97;;
20296;SDS011;10307;40.100;18.336;2022-12-01T10:32:18;9.32;;;3.55;;
20296;SDS011;10307;40.100;18.336;2022-12-01T10:34:52;11.75;;;3.22;;
20296;SDS011;10307;40.100;18.336;2022-12-01T10:37:19;6.78;;;2.75;;
20296;SDS011;10307;40.100;18.336;2022-12-01T10:39:52;7.97;;;2.47;;
20296;SDS011;10307;40.100;18.336;2022-12-01T10:44:52;11.98;;;2.30;;
20296;SDS011;10307;40.100;18.336;2022-12-01T10:47:21;5.03;;;2.70;;
20296;SDS011;10307;40.100;18.336;2022-12-01T10:49:50;8.68;;;3.05;;
20296;SDS011;10307;40.100;18.336;2022-12-01T10:52:38;6.97;;;3.17;;
20296;SDS011;10307;40.100;18.336;2022-12-01T10:55:23;7.80;;;2.97;;
20296;SDS011;10307;40.100;18.336;2022-12-01T10:57:54;5.85;;;2.40;;
20296;SDS011;10307;40.100;18.336;2022-12-01T11:00:27;12.73;;;4.55;;
20296;SDS011;10307;40.100;18.336;2022-12-01T11:03:01;8.70;;;2.55;;
20296;SDS011;10307;40.100;18.336;2022-12-01T11:05:29;7.55;;;2.65;;
20296;SDS011;10307;40.100;18.336;2022-12-01T11:08:02;14.13;;;6.35;;
20296;SDS011;10307;40.100;18.336;2022-12-01T11:10:30;9.50;;;3.08;;
20296;SDS011;10307;40.100;18.336;2022-12-01T11:13:02;10.05;;;4.00;;
20296;SDS011;10307;40.100;18.336;2022-12-01T11:15:53;8.60;;;3.00;;
20296;SDS011;10307;40.100;18.336;2022-12-01T11:18:34;7.07;;;3.10;;
20296;SDS011;10307;40.100;18.336;2022-12-01T11:23:51;8.82;;;3.40;;
20296;SDS011;10307;40.100;18.336;2022-12-01T11:26:23;8.65;;;3.10;;
20296;SDS011;10307;40.100;18.336;2022-12-01T11:28:59;17.73;;;4.15;;
20296;SDS011;10307;40.100;18.336;2022-12-01T11:31:38;10.23;;;3.25;;
20296;SDS011;10307;40.100;18.336;2022-12-01T11:34:20;10.77;;;3.50;;
20296;SDS011;10307;40.100;18.336;2022-12-01T11:36:50;14.43;;;3.58;;
20296;SDS011;10307;40.100;18.336;2022-12-01T11:39:36;11.05;;;4.80;;
20296;SDS011;10307;40.100;18.336;2022-12-01T11:44:52;7.50;;;4.05;;
20296;SDS011;10307;40.100;18.336;2022-12-01T11:49:57;10.98;;;4.20;;
20296;SDS011;10307;40.100;18.336;2022-12-01T11:52:44;11.68;;;4.63;;
20296;SDS011;10307;40.100;18.336;2022-12-01T11:57:38;11.52;;;4.97;;
20296;SDS011;10307;40.100;18.336;2022-12-01T12:00:14;14.98;;;4.43;;
20296;SDS011;10307;40.100;18.336;2022-12-01T12:11:18;13.60;;;4.75;;
20296;SDS011;10307;40.100;18.336;2022-12-01T12:22:33;14.63;;;6.60;;
20296;SDS011;10307;40.100;18.336;2022-12-01T12:25:18;10.18;;;4.65;;
20296;SDS011;10307;40.100;18.336;2022-12-01T12:33:51;11.93;;;4.50;;
20296;SDS011;10307;40.100;18.336;2022-12-01T12:36:52;14.50;;;4.85;;
20296;SDS011;10307;40.100;18.336;2022-12-01T12:39:33;12.52;;;5.57;;
20296;SDS011;10307;40.100;18.336;2022-12-01T12:45:14;10.30;;;4.90;;
20296;SDS011;10307;40.100;18.336;2022-12-01T12:50:40;10.95;;;5.15;;
20296;SDS011;10307;40.100;18.336;2022-12-01T12:53:18;15.10;;;5.57;;
20296;SDS011;10307;40.100;18.336;2022-12-01T12:55:50;13.68;;;4.75;;
20296;SDS011;10307;40.100;18.336;2022-12-01T12:58:28;12.30;;;4.78;;
20296;SDS011;10307;40.100;18.336;2022-12-01T13:01:17;11.68;;;4.18;;
20296;SDS011;10307;40.100;18.336;2022-12-01T13:03:54;13.00;;;5.68;;
20296;SDS011;10307;40.100;18.336;2022-12-01T13:06:24;13.93;;;4.93;;
20296;SDS011;10307;40.100;18.336;2022-12-01T13:09:01;10.20;;;4.88;;
20296;SDS011;10307;40.100;18.336;2022-12-01T13:11:58;11.80;;;5.57;;
20296;SDS011;10307;40.100;18.336;2022-12-01T13:14:29;11.73;;;5.13;;
20296;SDS011;10307;40.100;18.336;2022-12-01T13:17:47;10.75;;;5.22;;
20296;SDS011;10307;40.100;18.336;2022-12-01T13:20:04;11.85;;;4.38;;
20296;SDS011;10307;40.100;18.336;2022-12-01T13:22:32;12.57;;;5.35;;
20296;SDS011;10307;40.100;18.336;2022-12-01T13:25:01;12.98;;;5.53;;
20296;SDS011;10307;40.100;18.336;2022-12-01T13:27:30;13.90;;;6.30;;
20296;SDS011;10307;40.100;18.336;2022-12-01T13:30:00;17.45;;;6.82;;
20296;SDS011;10307;40.100;18.336;2022-12-01T13:32:29;10.77;;;5.45;;
20296;SDS011;10307;40.100;18.336;2022-12-01T13:34:56;14.57;;;4.63;;
20296;SDS011;10307;40.100;18.336;2022-12-01T13:37:31;12.88;;;4.40;;
20296;SDS011;10307;40.100;18.336;2022-12-01T13:40:06;14.98;;;4.50;;
20296;SDS011;10307;40.100;18.336;2022-12-01T13:42:59;9.65;;;3.15;;
20296;SDS011;10307;40.100;18.336;2022-12-01T13:45:31;11.38;;;4.10;;
20296;SDS011;10307;40.100;18.336;2022-12-01T13:48:00;9.10;;;3.85;;
20296;SDS011;10307;40.100;18.336;2022-12-01T13:50:48;13.18;;;3.65;;
20296;SDS011;10307;40.100;18.336;2022-12-01T13:53:25;11.00;;;4.30;;
20296;SDS011;10307;40.100;18.336;2022-12-01T14:04:28;15.05;;;4.97;;
20296;SDS011;10307;40.100;18.336;2022-12-01T14:06:41;14.20;;;5.35;;
20296;SDS011;10307;40.100;18.336;2022-12-01T14:09:31;12.70;;;4.97;;
20296;SDS011;10307;40.100;18.336;2022-12-01T14:12:11;10.98;;;4.35;;
20296;SDS011;10307;40.100;18.336;2022-12-01T14:14:44;12.60;;;4.43;;
20296;SDS011;10307;40.100;18.336;2022-12-01T14:17:28;9.13;;;4.10;;
20296;SDS011;10307;40.100;18.336;2022-12-01T14:20:03;12.00;;;4.15;;
20296;SDS011;10307;40.100;18.336;2022-12-01T14:22:37;11.60;;;4.43;;
20296;SDS011;10307;40.100;18.336;2022-12-01T14:25:22;12.32;;;4.22;;
20296;SDS011;10307;40.100;18.336;2022-12-01T14:27:53;10.60;;;4.38;;
20296;SDS011;10307;40.100;18.336;2022-12-01T14:39:31;12.05;;;4.93;;
20296;SDS011;10307;40.100;18.336;2022-12-01T14:41:49;11.27;;;4.20;;
20296;SDS011;10307;40.100;18.336;2022-12-01T14:44:35;12.93;;;6.38;;
20296;SDS011;10307;40.100;18.336;2022-12-01T14:54:44;13.75;;;6.43;;
20296;SDS011;10307;40.100;18.336;2022-12-01T14:57:12;15.73;;;6.45;;
20296;SDS011;10307;40.100;18.336;2022-12-01T14:59:43;19.87;;;9.23;;
20296;SDS011;10307;40.100;18.336;2022-12-01T15:02:09;17.45;;;7.57;;
20296;SDS011;10307;40.100;18.336;2022-12-01T15:07:35;12.45;;;6.00;;
20296;SDS011;10307;40.100;18.336;2022-12-01T15:10:20;14.50;;;6.22;;
20296;SDS011;10307;40.100;18.336;2022-12-01T15:12:50;14.27;;;7.05;;
20296;SDS011;10307;40.100;18.336;2022-12-01T15:15:23;17.17;;;6.82;;
20296;SDS011;10307;40.100;18.336;2022-12-01T15:17:51;13.45;;;7.50;;
20296;SDS011;10307;40.100;18.336;2022-12-01T15:20:25;14.10;;;6.50;;
20296;SDS011;10307;40.100;18.336;2022-12-01T15:23:01;13.80;;;7.30;;
20296;SDS011;10307;40.100;18.336;2022-12-01T15:25:39;13.30;;;6.60;;
20296;SDS011;10307;40.100;18.336;2022-12-01T15:28:16;11.38;;;5.85;;
20296;SDS011;10307;40.100;18.336;2022-12-01T15:30:44;15.68;;;6.80;;
20296;SDS011;10307;40.100;18.336;2022-12-01T15:33:29;18.40;;;8.27;;
20296;SDS011;10307;40.100;18.336;2022-12-01T15:35:58;19.02;;;7.90;;
20296;SDS011;10307;40.100;18.336;2022-12-01T15:38:35;18.35;;;8.40;;
20296;SDS011;10307;40.100;18.336;2022-12-01T15:41:03;23.10;;;9.65;;
20296;SDS011;10307;40.100;18.336;2022-12-01T15:43:34;16.63;;;7.63;;
20296;SDS011;10307;40.100;18.336;2022-12-01T15:46:11;17.38;;;9.25;;
20296;SDS011;10307;40.100;18.336;2022-12-01T15:48:39;19.63;;;10.18;;
20296;SDS011;10307;40.100;18.336;2022-12-01T15:51:14;20.63;;;11.55;;
20296;SDS011;10307;40.100;18.336;2022-12-01T15:54:17;20.17;;;11.68;;
20296;SDS011;10307;40.100;18.336;2022-12-01T15:56:54;26.35;;;12.90;;
20296;SDS011;10307;40.100;18.336;2022-12-01T16:05:44;24.35;;;12.00;;
20296;SDS011;10307;40.100;18.336;2022-12-01T16:07:50;18.98;;;10.00;;
20296;SDS011;10307;40.100;18.336;2022-12-01T16:10:29;24.92;;;12.85;;
20296;SDS011;10307;40.100;18.336;2022-12-01T16:19:00;23.25;;;13.20;;
20296;SDS011;10307;40.100;18.336;2022-12-01T16:21:27;19.13;;;10.75;;
20296;SDS011;10307;40.100;18.336;2022-12-01T16:24:03;17.35;;;9.60;;
20296;SDS011;10307;40.100;18.336;2022-12-01T16:26:32;19.10;;;9.60;;
20296;SDS011;10307;40.100;18.336;2022-12-01T16:28:59;18.50;;;9.57;;
20296;SDS011;10307;40.100;18.336;2022-12-01T16:31:25;20.52;;;9.25;;
20296;SDS011;10307;40.100;18.336;2022-12-01T16:33:58;16.15;;;7.55;;
20296;SDS011;10307;40.100;18.336;2022-12-01T16:36:26;26.23;;;11.48;;
20296;SDS011;10307;40.100;18.336;2022-12-01T16:38:53;31.30;;;17.17;;
20296;SDS011;10307;40.100;18.336;2022-12-01T16:41:31;20.98;;;10.95;;
20296;SDS011;10307;40.100;18.336;2022-12-01T16:43:59;17.30;;;10.40;;
20296;SDS011;10307;40.100;18.336;2022-12-01T16:46:26;19.35;;;11.52;;
20296;SDS011;10307;40.100;18.336;2022-12-01T16:48:52;19.17;;;9.85;;
20296;SDS011;10307;40.100;18.336;2022-12-01T16:51:18;16.13;;;11.38;;
20296;SDS011;10307;40.100;18.336;2022-12-01T16:53:45;21.25;;;12.70;;
20296;SDS011;10307;40.100;18.336;2022-12-01T16:56:13;22.38;;;10.20;;
20296;SDS011;10307;40.100;18.336;2022-12-01T16:58:40;19.17;;;11.32;;
20296;SDS011;10307;40.100;18.336;2022-12-01T17:01:06;19.58;;;10.40;;
20296;SDS011;10307;40.100;18.336;2022-12-01T17:03:33;24.25;;;11.57;;
20296;SDS011;10307;40.100;18.336;2022-12-01T17:06:02;25.10;;;12.70;;
20296;SDS011;10307;40.100;18.336;2022-12-01T17:08:30;26.73;;;14.10;;
20296;SDS011;10307;40.100;18.336;2022-12-01T17:10:57;19.48;;;9.85;;
20296;SDS011;10307;40.100;18.336;2022-12-01T17:13:24;17.17;;;9.13;;
20296;SDS011;10307;40.100;18.336;2022-12-01T17:15:51;18.05;;;9.52;;
20296;SDS011;10307;40.100;18.336;2022-12-01T17:18:19;20.25;;;10.18;;
20296;SDS011;10307;40.100;18.336;2022-12-01T17:20:59;18.75;;;8.57;;